createdAt,value
2022-11-10T00:00:25.060Z,20.65
2022-11-10T00:05:45.290Z,21.17
2022-11-10T00:11:07.018Z,20.73
2022-11-10T00:16:45.683Z,21.30
2022-11-10T00:22:06.030Z,20.38
2022-11-10T00:27:26.214Z,19.60
2022-11-10T00:32:48.253Z,17.27
2022-11-10T00:38:09.046Z,19.92
2022-11-10T00:43:29.987Z,20.20
2022-11-10T00:48:50.576Z,21.63
2022-11-10T00:54:11.703Z,8.98
2022-11-10T00:59:31.911Z,7.05
2022-11-10T01:04:52.309Z,3.83
2022-11-10T01:10:12.457Z,3.58
2022-11-10T01:15:32.961Z,3.20
2022-11-10T01:20:53.309Z,2.95
2022-11-10T01:26:14.206Z,2.92
2022-11-10T01:31:34.304Z,2.60
2022-11-10T01:36:54.544Z,2.35
2022-11-10T01:42:14.993Z,3.40
2022-11-10T01:47:35.270Z,3.80
2022-11-10T01:53:00.468Z,4.07
2022-11-10T01:58:28.626Z,4.40
2022-11-10T02:04:09.476Z,4.03
2022-11-10T02:09:29.845Z,3.90
2022-11-10T02:14:50.407Z,3.40
2022-11-10T02:20:14.192Z,4.00
2022-11-10T02:25:34.617Z,5.10
2022-11-10T02:30:54.926Z,7.00
2022-11-10T02:36:15.436Z,6.63
2022-11-10T02:41:35.535Z,6.65
2022-11-10T02:46:55.969Z,6.93
2022-11-10T02:52:16.342Z,6.53
2022-11-10T02:57:37.624Z,8.60
2022-11-10T03:03:02.358Z,8.70
2022-11-10T03:08:22.524Z,7.30
2022-11-10T03:14:00.411Z,5.90
2022-11-10T03:19:21.798Z,10.70
2022-11-10T03:24:41.813Z,6.38
2022-11-10T03:30:02.520Z,4.65
2022-11-10T03:35:22.877Z,7.07
2022-11-10T03:41:17.095Z,5.05
2022-11-10T03:46:23.337Z,5.43
2022-11-10T03:51:43.721Z,4.05
2022-11-10T03:57:04.437Z,3.90
2022-11-10T04:02:24.860Z,4.82
2022-11-10T04:08:04.152Z,5.35
2022-11-10T04:13:43.862Z,5.00
2022-11-10T04:19:04.479Z,4.38
2022-11-10T04:24:24.852Z,5.22
2022-11-10T04:29:44.965Z,5.90
2022-11-10T04:35:05.353Z,5.75
2022-11-10T04:40:25.554Z,6.60
2022-11-10T04:45:45.818Z,5.28
2022-11-10T04:51:07.215Z,5.32
2022-11-10T04:56:28.254Z,6.03
2022-11-10T05:01:48.566Z,6.70
2022-11-10T05:07:08.888Z,6.50
2022-11-10T05:12:29.082Z,8.23
2022-11-10T05:17:50.551Z,7.88
2022-11-10T05:23:29.629Z,7.68
2022-11-10T05:28:50.060Z,4.88
2022-11-10T05:34:10.079Z,6.55
2022-11-10T05:39:30.602Z,8.20
2022-11-10T05:44:50.791Z,8.38
2022-11-10T05:50:11.471Z,8.13
2022-11-10T05:55:31.800Z,7.00
2022-11-10T06:00:52.096Z,8.68
2022-11-10T06:06:12.074Z,9.23
2022-11-10T06:11:32.507Z,9.77
2022-11-10T06:16:53.064Z,7.97
2022-11-10T06:22:13.379Z,8.48
2022-11-10T06:27:33.557Z,11.00
2022-11-10T06:32:54.158Z,10.60
2022-11-10T06:38:14.489Z,12.35
2022-11-10T06:43:34.888Z,13.38
2022-11-10T06:48:55.229Z,15.35
2022-11-10T06:54:15.350Z,13.18
2022-11-10T06:59:35.737Z,14.00
2022-11-10T07:04:56.338Z,13.25
2022-11-10T07:10:16.583Z,11.70
2022-11-10T07:15:36.885Z,10.70
2022-11-10T07:20:57.150Z,12.02
2022-11-10T07:26:17.258Z,11.05
2022-11-10T07:31:37.339Z,10.48
2022-11-10T07:36:57.815Z,9.27
2022-11-10T07:42:18.236Z,11.25
2022-11-10T07:47:38.668Z,10.10
2022-11-10T07:53:12.976Z,9.35
2022-11-10T07:58:34.205Z,10.70
2022-11-10T08:03:54.199Z,12.05
2022-11-10T08:09:14.145Z,12.13
2022-11-10T08:14:34.530Z,12.02
2022-11-10T08:19:55.020Z,10.30
2022-11-10T08:25:15.187Z,10.02
2022-11-10T08:30:37.241Z,9.25
2022-11-10T08:35:57.407Z,10.13
2022-11-10T08:41:18.140Z,7.90
2022-11-10T08:46:38.345Z,8.95
2022-11-10T08:51:58.868Z,8.25
2022-11-10T08:57:18.961Z,7.55
2022-11-10T09:02:39.318Z,8.23
2022-11-10T09:07:59.769Z,6.53
2022-11-10T09:13:28.220Z,5.22
2022-11-10T09:18:50.222Z,4.82
2022-11-10T09:24:10.833Z,3.30
2022-11-10T09:29:33.411Z,3.40
2022-11-10T09:34:53.973Z,3.67
2022-11-10T09:40:29.730Z,3.80
2022-11-10T09:45:53.756Z,3.15
2022-11-10T09:51:30.788Z,3.40
2022-11-10T09:56:53.586Z,3.60
2022-11-10T10:02:24.426Z,3.30
2022-11-10T10:08:00.209Z,3.00
2022-11-10T10:13:42.238Z,3.20
2022-11-10T10:19:05.206Z,3.50
2022-11-10T10:24:32.400Z,3.53
2022-11-10T10:29:53.344Z,3.40
2022-11-10T10:35:16.161Z,3.42
2022-11-10T10:40:36.901Z,3.20
2022-11-10T10:46:11.625Z,2.85
2022-11-10T10:51:32.044Z,3.05
2022-11-10T10:57:02.672Z,2.92
2022-11-10T11:02:29.718Z,2.60
2022-11-10T11:07:59.778Z,2.92
2022-11-10T11:13:24.887Z,2.72
2022-11-10T11:18:45.375Z,2.40
2022-11-10T11:24:42.714Z,2.70
2022-11-10T11:30:06.377Z,2.63
2022-11-10T11:35:31.389Z,2.60
2022-11-10T11:41:03.799Z,2.63
2022-11-10T11:46:47.892Z,2.53
2022-11-10T11:52:21.241Z,2.78
2022-11-10T11:57:53.014Z,3.30
2022-11-10T12:03:42.715Z,2.85
2022-11-10T12:09:05.938Z,2.50
2022-11-10T12:14:53.895Z,2.13
2022-11-10T12:20:32.093Z,2.30
2022-11-10T12:26:29.892Z,2.53
2022-11-10T12:31:55.805Z,2.72
2022-11-10T12:37:27.703Z,2.63
2022-11-10T12:42:56.984Z,2.60
2022-11-10T12:48:18.895Z,2.08
2022-11-10T12:53:41.933Z,2.17
2022-11-10T12:59:20.515Z,1.88
2022-11-10T13:04:40.807Z,2.15
2022-11-10T13:10:19.277Z,2.08
2022-11-10T13:15:46.046Z,2.20
2022-11-10T13:21:06.376Z,1.85
2022-11-10T13:26:38.943Z,2.03
2022-11-10T13:32:19.721Z,2.00
2022-11-10T13:37:39.911Z,1.92
2022-11-10T13:43:00.258Z,1.70
2022-11-10T13:48:38.579Z,2.00
2022-11-10T13:54:22.116Z,1.95
2022-11-10T13:59:52.570Z,1.60
2022-11-10T14:05:34.391Z,1.55
2022-11-10T14:11:02.188Z,1.55
2022-11-10T14:16:25.891Z,1.88
2022-11-10T14:27:25.865Z,1.90
2022-11-10T14:32:55.302Z,2.00
2022-11-10T14:38:24.519Z,1.90
2022-11-10T14:43:59.112Z,1.95
2022-11-10T14:49:26.534Z,1.80
2022-11-10T14:54:47.133Z,1.77
2022-11-10T15:00:21.883Z,1.88
2022-11-10T15:05:48.898Z,1.98
2022-11-10T15:11:39.355Z,1.60
2022-11-10T15:17:01.992Z,2.10
2022-11-10T15:22:36.599Z,1.48
2022-11-10T15:28:00.716Z,1.85
2022-11-10T15:33:45.929Z,1.55
2022-11-10T15:39:12.195Z,1.33
2022-11-10T15:44:32.747Z,1.90
2022-11-10T15:49:53.927Z,1.40
2022-11-10T15:55:21.460Z,1.35
2022-11-10T16:00:42.035Z,1.55
2022-11-10T16:06:02.437Z,1.40
2022-11-10T16:11:23.537Z,1.55
2022-11-10T16:16:43.817Z,1.70
2022-11-10T16:22:03.847Z,1.90
2022-11-10T16:27:24.187Z,1.42
2022-11-10T16:32:44.443Z,1.50
2022-11-10T16:38:31.247Z,1.35
2022-11-10T16:43:52.131Z,1.50
2022-11-10T16:49:26.500Z,1.90
2022-11-10T16:54:46.736Z,2.42
2022-11-10T17:00:07.852Z,1.65
2022-11-10T17:05:28.435Z,1.58
2022-11-10T17:10:49.961Z,1.95
2022-11-10T17:16:33.064Z,1.90
2022-11-10T17:21:54.321Z,1.80
2022-11-10T17:27:16.786Z,2.35
2022-11-10T17:33:03.007Z,1.50
2022-11-10T17:38:29.364Z,1.77
2022-11-10T17:43:49.670Z,2.28
2022-11-10T17:49:10.002Z,3.05
2022-11-10T17:54:30.516Z,1.95
2022-11-10T17:59:50.839Z,1.40
2022-11-10T18:05:16.951Z,1.73
2022-11-10T18:10:40.589Z,3.13
2022-11-10T18:16:00.914Z,2.92
2022-11-10T18:21:21.668Z,4.15
2022-11-10T18:26:42.690Z,3.40
2022-11-10T18:32:03.464Z,2.80
2022-11-10T18:37:23.880Z,2.60
2022-11-10T18:42:44.434Z,2.67
2022-11-10T18:48:05.005Z,2.38
2022-11-10T18:53:25.721Z,2.97
2022-11-10T18:58:56.185Z,4.32
2022-11-10T19:04:16.847Z,3.85
2022-11-10T19:09:37.824Z,8.10
2022-11-10T19:14:57.940Z,4.43
2022-11-10T19:20:18.188Z,4.10
2022-11-10T19:25:38.754Z,4.22
2022-11-10T19:31:07.582Z,4.03
2022-11-10T19:36:28.495Z,5.35
2022-11-10T19:41:48.932Z,5.07
2022-11-10T19:47:09.110Z,5.78
2022-11-10T19:52:29.627Z,4.57
2022-11-10T19:57:49.729Z,5.35
2022-11-10T20:03:11.363Z,6.25
2022-11-10T20:08:32.576Z,5.95
2022-11-10T20:13:55.600Z,4.28
2022-11-10T20:19:16.183Z,5.78
2022-11-10T20:24:36.631Z,7.47
2022-11-10T20:29:56.784Z,9.02
2022-11-10T20:35:17.337Z,9.98
2022-11-10T20:40:44.363Z,3.53
2022-11-10T20:46:07.135Z,6.28
2022-11-10T20:51:27.828Z,4.05
2022-11-10T20:56:48.187Z,4.53
2022-11-10T21:02:11.178Z,6.15
2022-11-10T21:07:31.648Z,5.30
2022-11-10T21:12:52.045Z,5.40
2022-11-10T21:18:12.105Z,6.22
2022-11-10T21:23:32.435Z,4.57
2022-11-10T21:28:53.135Z,6.55
2022-11-10T21:34:13.459Z,7.13
2022-11-10T21:39:33.709Z,7.28
2022-11-10T21:44:54.053Z,5.88
2022-11-10T21:50:14.705Z,6.35
2022-11-10T21:55:34.756Z,6.15
2022-11-10T22:01:12.228Z,6.57
2022-11-10T22:06:51.663Z,7.40
2022-11-10T22:12:31.915Z,7.50
2022-11-10T22:18:11.460Z,7.75
2022-11-10T22:23:50.719Z,6.53
2022-11-10T22:29:11.551Z,9.52
2022-11-10T22:34:32.068Z,6.10
2022-11-10T22:40:10.830Z,9.35
2022-11-10T22:45:31.328Z,8.90
2022-11-10T22:50:59.440Z,9.15
2022-11-10T22:56:19.777Z,7.68
2022-11-10T23:01:41.281Z,7.97
2022-11-10T23:07:01.739Z,5.47
2022-11-10T23:12:21.945Z,8.40
2022-11-10T23:17:42.146Z,5.53
2022-11-10T23:23:02.777Z,6.30
2022-11-10T23:28:23.085Z,5.85
2022-11-10T23:33:45.121Z,5.20
2022-11-10T23:39:05.656Z,5.57
2022-11-10T23:44:26.126Z,6.05
2022-11-10T23:49:46.708Z,7.13
2022-11-10T23:55:07.384Z,7.22
